Terminal Aerodrome Forecast
Issued by NWS

Home | Current Version | Previous Version | Graphics & Text | Print | Product List | Glossary On
Versions: 1 2 3 4 5 6 7 8 9 10 11 12 13 14 15 16 17 18 19 20 21 22
000
FTUS41 KCLE 270540
TAFFDY
TAF
KFDY 270540Z 2706/2806 22008KT P6SM BKN040
     FM271000 24006KT 4SM BR OVC018
     FM271500 24008KT P6SM BKN018
     FM271700 24008KT P6SM BKN050
     FM272300 VRB03KT P6SM OVC100
     FM280300 08006KT 5SM -RA BR OVC015=

USA.gov is the U.S. government's official web portal to all federal, state and local government web resources and services.